Kezdőlap
METAR-TAF:

METAR-TAF

Repülőterek :

Vlagyikavkaz, Oroszország

földrajzi szélesség: 43-12-18N, földrajzi hosszúság: 044-36-24E, magasság: 510 m

Jelenlegi meteorológiai megfigyelések

A jelentés 42 perccel ezelõtt készült, 14:00 UTC
Nyugati szél 6 kt
Hőmérséklet 20°C
Páratartalom 40%
Légköri nyomás 1021 hPa
Látótávolság 10 km, vagy több

METAR: URMO 151400Z 26003MPS 9999 NSC 20/06 Q1021 R09/010070 NOSIG RMK QFE721/0962

Idő: 17:42 (14:42 UTC)

Előrejelzés

A jelentés 42 perccel ezelõtt készült, 14:00 UTC
Az előrejelzés 15-én 15 óra UTC és 15-én 24 óra UTC között érvényes
Nyugati szél 6 kt széllökések: 16 kt
Látótávolság 10 km, vagy több
Szórványos felhőzet 3000 lábon

TAF: URMO 151400Z 1515/1524 26003G08MPS 9999 SCT030

Meteorológiai megfigyelések és előrejelzések több, mint 4000 repülőtéren (METAR és TAF jelentéseket).

A térképen piros és sárga pontok jelzik az elérhető meteorológiai állomásokat.

Mozgassa az egeret a pont fölött, hogy megjelenjen az állomás neve.

Azután kattintson az időjárási megfigyelések és előrejelzések megtekintéséhez.

A térkép megváltoztatása: kattintson a fekete keresztel jelölt zöld gombra ráközelítéshez, a vonallal jelölt zöld gombra távolításhoz, vagy a zöld nyilakra a szomszédos térképek eléréséhez.


METAR-TAF: